MDSD/SDQ METAR and TAF weather

Enter ICAO airport designator
Station Type Date Time Source
MDSD METAR 2018/12/17 16:00 UTC NOAA

MDSD 171600Z 14006KT 9999 BKN020 SCT300 29/24 Q1018


Station Type Date Time Source
MDSD Decoded METAR 2018/12/17 16:00 UTC NOAA

Las Americas, Dominican Republic (MDSD) 18-26N 069-40W
Dec 17, 2018 - 11:00 AM EST / 2018.12.17 1600 UTC
Wind: from the SE (140 degrees) at 7 MPH (6 KT):0
Visibility: greater than 7 mile(s):0
Sky conditions: mostly cloudy
Temperature: 84 F (29 C)
Dew Point: 75 F (24 C)
Relative Humidity: 74%
Pressure (altimeter): 30.06 in. Hg (1018 hPa)
ob: MDSD 171600Z 14006KT 9999 BKN020 SCT300 29/24 Q1018
cycle: 16

Station Type Date Time Source
MDSD TAF 2018/12/17 18:22 UTC NOAA

TAF MDSD 171600Z 1718/1818 15010KT 9999 SCT018
BECMG 1800/1702 040036KT


Example: see airport list